Airport View

Enter AWOS ICAO identifier for current METAR.

ex. KFNL

KAEJ 250545Z AUTO 34012G19KT 10SM CLR 06/M06 A3019 RMK AO2 T00551058

25 Nov 2017 05:47

Frequency: 132.925

Phone: 719-395-2599

Other Area AWOS: K7BM - KANK - KMYP - KLXV

TAF KASE 242324Z 2500/2524 32007KT P6SM OVC100 FM250400 23005KT P6SM SCT100 SCT250 FM252000 34008KT P6SM FEW150 FEW250 FM252300 28008KT P6SM FEW150 FEW250